Warsaw, Poland
Current Conditions -  °F | °C
As of 7:30 AM on Sunday 26 Oct 2014 (Local Time) from EPWA Reporting Station
Broken Clouds Broken Clouds  
Wind Chill: 22°   Ceiling: 3300
Heat Index: 28°   Visibility: 6mi
Dew Point: 27°   Wind: 6mph
Humidity: 93%   Direction: 140°SE
Pressure: 30.39"   Gusts: NA
Location:  52.26°N, 21.02°E
Report Text: EPWA 260530Z 14005KT 9999 BKN033 M02/M03 Q1029 NOSIG
Loading
Personal Weather Stations






























Interactive Weather Map
Tropical Storm Tracking
New forecast layout! Learn more

10-Day Weather Forecast

Advertisements
Track Severe Weather on mobile